Time;durP1;ratioP1;P1;durP2;ratioP2;P2;SDS_P1;SDS_P2;PMS_P1;PMS_P2;Temp;Humidity;BMP_temperature;BMP_pressure;BME280_temperature;BME280_humidity;BME280_pressure;Samples;Min_cycle;Max_cycle;Signal;HPM_P1;HPM_P2
2021/10/26 00:01:59;;;;;;;20.08;12.93;;;7.90;99.90;;;;;;6263791;22;20027;-91
2021/10/26 00:04:50;;;;;;;18.70;12.05;;;7.90;99.90;;;;;;6307237;22;20101;-90
2021/10/26 00:07:38;;;;;;;20.42;13.10;;;7.90;99.90;;;;;;6282504;22;20055;-89
2021/10/26 00:10:27;;;;;;;24.63;13.25;;;8.00;99.90;;;;;;6296877;22;20023;-89
2021/10/26 00:13:17;;;;;;;19.13;12.63;;;8.00;99.90;;;;;;6318468;22;20034;-89
2021/10/26 00:16:08;;;;;;;23.13;12.32;;;8.10;99.90;;;;;;6321137;22;20033;-89
2021/10/26 00:18:58;;;;;;;20.13;12.20;;;8.10;99.90;;;;;;6324908;22;20035;-90
2021/10/26 00:21:57;;;;;;;21.50;13.35;;;8.10;99.90;;;;;;6308542;22;20031;-89
2021/10/26 00:24:49;;;;;;;20.17;12.13;;;8.10;99.90;;;;;;6324919;22;20023;-90
2021/10/26 00:27:36;;;;;;;23.45;12.48;;;8.20;99.90;;;;;;6303400;22;20019;-89
2021/10/26 00:30:25;;;;;;;19.48;12.63;;;8.20;99.90;;;;;;6324125;22;20023;-88
2021/10/26 00:33:14;;;;;;;21.02;12.70;;;8.30;99.90;;;;;;6317575;22;20031;-89
2021/10/26 00:36:02;;;;;;;18.98;12.15;;;8.30;99.90;;;;;;6272093;22;20027;-87
2021/10/26 00:38:54;;;;;;;18.42;11.75;;;8.30;99.90;;;;;;6292212;22;20087;-86
2021/10/26 00:41:41;;;;;;;16.17;12.10;;;8.40;99.90;;;;;;6293818;22;20102;-90
2021/10/26 00:44:32;;;;;;;17.92;11.27;;;8.50;99.90;;;;;;6291242;22;20023;-89
2021/10/26 00:47:19;;;;;;;18.83;11.50;;;8.50;99.90;;;;;;6291420;22;20023;-89
2021/10/26 00:50:07;;;;;;;19.17;12.60;;;8.50;99.90;;;;;;6291910;22;20087;-89
2021/10/26 00:52:55;;;;;;;18.40;11.73;;;8.60;99.90;;;;;;6249032;22;20056;-89
2021/10/26 00:55:48;;;;;;;18.08;11.88;;;8.50;99.90;;;;;;6313117;22;20092;-89
2021/10/26 00:58:37;;;;;;;19.02;12.30;;;8.50;99.90;;;;;;6293779;22;20050;-89
2021/10/26 01:01:30;;;;;;;17.33;11.55;;;8.50;99.90;;;;;;6290100;22;20058;-88
2021/10/26 01:04:21;;;;;;;18.05;11.70;;;8.50;99.90;;;;;;6313468;22;20059;-89
2021/10/26 01:07:10;;;;;;;17.00;11.60;;;8.40;99.90;;;;;;6312121;22;20025;-89
2021/10/26 01:10:03;;;;;;;15.90;11.40;;;8.40;99.90;;;;;;6290900;22;20045;-88
2021/10/26 01:12:57;;;;;;;18.23;11.60;;;8.30;99.90;;;;;;6312684;22;20023;-87
2021/10/26 01:15:46;;;;;;;20.92;11.93;;;8.40;99.90;;;;;;6287406;22;20027;-89
2021/10/26 01:18:34;;;;;;;18.33;12.05;;;8.50;99.90;;;;;;6290729;22;20039;-89
2021/10/26 01:21:24;;;;;;;19.00;12.52;;;8.50;99.90;;;;;;6313507;22;20106;-90
2021/10/26 01:24:14;;;;;;;16.98;10.93;;;8.50;99.90;;;;;;6249596;22;20023;-91
2021/10/26 01:27:08;;;;;;;19.08;12.38;;;8.60;99.90;;;;;;6313336;22;20031;-88
2021/10/26 01:29:58;;;;;;;18.15;11.02;;;8.50;99.90;;;;;;6288448;22;20046;-89
2021/10/26 01:32:55;;;;;;;19.40;11.70;;;8.50;99.90;;;;;;6263760;22;20122;-90
2021/10/26 01:35:45;;;;;;;19.67;11.10;;;8.50;99.90;;;;;;6306158;22;20402;-90
2021/10/26 01:38:32;;;;;;;19.77;10.77;;;8.50;99.90;;;;;;6271531;22;20027;-86
2021/10/26 01:41:20;;;;;;;18.30;10.85;;;8.50;99.90;;;;;;6319455;22;20030;-89
2021/10/26 01:44:07;;;;;;;17.13;11.35;;;8.50;99.90;;;;;;6272841;22;20082;-89
2021/10/26 01:46:58;;;;;;;20.17;11.93;;;8.50;99.90;;;;;;6314855;22;20020;-91
2021/10/26 01:49:54;;;;;;;21.75;11.23;;;8.50;99.90;;;;;;6275704;22;20019;-89
2021/10/26 01:52:46;;;;;;;15.77;11.10;;;8.50;99.90;;;;;;6291656;22;20027;-91
2021/10/26 01:55:33;;;;;;;19.88;11.98;;;8.40;99.90;;;;;;6291956;22;20023;-89
2021/10/26 01:58:20;;;;;;;20.75;13.05;;;8.40;99.90;;;;;;6249534;22;20058;-89
2021/10/26 02:01:08;;;;;;;20.70;12.45;;;8.30;99.90;;;;;;6290673;22;20417;-89
2021/10/26 02:04:03;;;;;;;21.27;12.85;;;8.20;99.90;;;;;;6291977;22;20031;-87
2021/10/26 02:06:51;;;;;;;24.65;14.13;;;8.20;99.90;;;;;;6312314;22;20019;-88
2021/10/26 02:09:45;;;;;;;22.17;13.77;;;8.00;99.90;;;;;;6291413;22;20076;-88
2021/10/26 02:12:38;;;;;;;19.92;14.27;;;8.00;99.90;;;;;;6294895;22;20113;-88
2021/10/26 02:15:34;;;;;;;22.02;15.35;;;8.00;99.90;;;;;;6291932;22;20023;-88
2021/10/26 02:18:40;;;;;;;25.35;16.13;;;8.00;99.90;;;;;;6275860;22;20038;-88
2021/10/26 02:21:29;;;;;;;25.73;15.98;;;8.00;99.90;;;;;;6269810;22;20023;-88
2021/10/26 02:24:20;;;;;;;21.85;14.65;;;7.90;99.90;;;;;;6291290;22;20091;-87
2021/10/26 02:27:07;;;;;;;24.25;15.20;;;7.90;99.90;;;;;;6293001;22;20028;-88
2021/10/26 02:29:57;;;;;;;26.67;16.95;;;7.90;99.90;;;;;;6314952;22;20042;-87
2021/10/26 02:32:45;;;;;;;22.83;16.33;;;7.90;99.90;;;;;;6291179;22;20019;-89
2021/10/26 02:35:33;;;;;;;25.85;15.85;;;7.80;99.90;;;;;;6315260;22;20055;-87
2021/10/26 02:38:21;;;;;;;26.58;16.38;;;7.80;99.90;;;;;;6270993;22;20031;-87
2021/10/26 02:41:08;;;;;;;28.55;17.00;;;7.80;99.90;;;;;;6270177;22;20087;-88
2021/10/26 02:43:56;;;;;;;26.27;16.48;;;7.80;99.90;;;;;;6292557;22;20019;-88
2021/10/26 02:46:44;;;;;;;28.05;16.98;;;7.80;99.90;;;;;;6315646;22;20050;-87
2021/10/26 02:49:31;;;;;;;26.23;17.83;;;7.80;99.90;;;;;;6293257;22;20096;-88
2021/10/26 02:52:19;;;;;;;29.80;17.90;;;7.80;99.90;;;;;;6298038;22;20373;-88
2021/10/26 02:55:07;;;;;;;27.60;17.55;;;7.80;99.90;;;;;;6275075;22;20053;-87
2021/10/26 02:57:55;;;;;;;25.83;16.98;;;7.70;99.90;;;;;;6283804;22;20037;-87
2021/10/26 03:00:44;;;;;;;29.90;18.08;;;7.80;99.90;;;;;;6283801;22;20109;-87
2021/10/26 03:03:34;;;;;;;28.65;17.20;;;7.70;99.90;;;;;;6283450;22;20027;-88
2021/10/26 03:06:26;;;;;;;31.73;18.63;;;7.70;99.90;;;;;;6265435;22;20027;-88
2021/10/26 03:09:16;;;;;;;27.80;17.52;;;7.70;99.90;;;;;;6283564;22;20106;-89
2021/10/26 03:12:07;;;;;;;28.15;17.52;;;7.70;99.90;;;;;;6284588;22;20327;-87
2021/10/26 03:14:55;;;;;;;28.15;16.48;;;7.60;99.90;;;;;;6284323;22;20035;-87
2021/10/26 03:17:46;;;;;;;28.05;18.08;;;7.60;99.90;;;;;;6305530;22;20426;-88
2021/10/26 03:20:35;;;;;;;26.48;17.40;;;7.60;99.90;;;;;;6306313;22;20031;-88
2021/10/26 03:23:24;;;;;;;28.48;18.52;;;7.50;99.90;;;;;;6267656;22;20034;-85
2021/10/26 03:26:13;;;;;;;31.70;18.48;;;7.40;99.90;;;;;;6287010;22;20129;-89
2021/10/26 03:29:00;;;;;;;32.13;18.30;;;7.40;99.90;;;;;;6282077;22;20023;-88
2021/10/26 03:31:53;;;;;;;29.00;18.80;;;7.30;99.90;;;;;;6305528;22;20038;-89
2021/10/26 03:34:41;;;;;;;33.92;19.98;;;7.30;99.90;;;;;;6264295;22;20037;-88
2021/10/26 03:37:40;;;;;;;;;;;;;;;;;;;;;
2021/10/26 03:40:27;;;;;;;35.47;21.20;;;7.30;99.90;;;;;;6305247;22;20035;-88
2021/10/26 03:43:15;;;;;;;38.83;22.83;;;7.30;99.90;;;;;;6306252;22;20043;-89
2021/10/26 03:46:02;;;;;;;34.95;21.60;;;7.30;99.90;;;;;;6286650;22;20033;-87
2021/10/26 03:48:53;;;;;;;31.88;20.63;;;7.20;99.90;;;;;;6318894;22;20034;-87
2021/10/26 03:51:40;;;;;;;35.15;21.42;;;7.20;99.90;;;;;;6300710;22;20019;-86
2021/10/26 03:54:30;;;;;;;39.78;22.40;;;7.20;99.90;;;;;;6276973;22;20019;-88
2021/10/26 03:57:17;;;;;;;34.08;22.60;;;7.10;99.90;;;;;;6305024;22;20057;-87
2021/10/26 04:00:06;;;;;;;36.40;21.02;;;7.10;99.90;;;;;;6263415;22;20042;-87
2021/10/26 04:02:56;;;;;;;37.03;21.27;;;7.00;99.90;;;;;;6305855;22;20088;-87
2021/10/26 04:06:12;;;;;;;38.47;21.95;;;7.00;99.90;;;;;;6289682;22;20165;-87
2021/10/26 04:09:09;;;;;;;37.20;21.05;;;6.90;99.90;;;;;;6305808;22;20019;-87
2021/10/26 04:12:07;;;;;;;35.35;22.73;;;6.90;99.90;;;;;;6284755;22;20027;-87
2021/10/26 04:14:57;;;;;;;32.05;20.27;;;6.80;99.90;;;;;;6282742;22;20019;-88
2021/10/26 04:17:45;;;;;;;36.65;22.58;;;6.80;99.90;;;;;;6305668;22;20067;-89
2021/10/26 04:20:32;;;;;;;45.42;23.48;;;6.70;99.90;;;;;;6284218;22;20055;-88
2021/10/26 04:23:20;;;;;;;47.17;22.92;;;6.70;99.90;;;;;;6304414;22;20051;-89
2021/10/26 04:43:36;;;;;;;46.10;26.77;;;6.70;99.90;;;;;;6182506;23;20628;-85
2021/10/26 04:50:52;;;;;;;41.22;25.67;;;6.80;99.90;;;;;;6258768;22;20370;-85
2021/10/26 04:53:39;;;;;;;45.70;25.17;;;6.80;99.90;;;;;;6282339;22;20046;-84
2021/10/26 04:56:27;;;;;;;52.40;27.02;;;6.70;99.90;;;;;;6281575;22;20413;-85
2021/10/26 04:59:14;;;;;;;52.60;30.27;;;6.70;99.90;;;;;;6261603;22;20023;-83
2021/10/26 05:02:07;;;;;;;57.03;28.27;;;6.80;99.90;;;;;;6283722;22;20054;-84
2021/10/26 05:04:54;;;;;;;55.70;29.17;;;6.70;99.90;;;;;;6305937;22;20120;-83
2021/10/26 05:07:41;;;;;;;49.30;27.50;;;6.70;99.90;;;;;;6260918;22;20308;-84
2021/10/26 05:10:29;;;;;;;48.80;26.80;;;6.70;99.90;;;;;;6305058;22;20027;-83
2021/10/26 05:13:16;;;;;;;54.60;28.05;;;6.60;99.90;;;;;;6305211;22;20050;-83
2021/10/26 05:16:04;;;;;;;49.72;29.05;;;6.60;99.90;;;;;;6280160;22;20077;-83
2021/10/26 05:18:55;;;;;;;54.17;29.00;;;6.60;99.90;;;;;;6280357;22;20049;-83
2021/10/26 05:21:42;;;;;;;56.88;30.17;;;6.60;99.90;;;;;;6280559;22;20077;-83
2021/10/26 05:24:33;;;;;;;51.15;28.55;;;6.60;99.90;;;;;;6302763;22;20334;-83
2021/10/26 05:27:23;;;;;;;49.40;25.83;;;6.60;99.90;;;;;;6259340;22;20042;-83
2021/10/26 05:30:13;;;;;;;64.43;29.98;;;6.60;99.90;;;;;;6280018;22;20019;-82
2021/10/26 05:33:01;;;;;;;44.22;25.80;;;6.50;99.90;;;;;;6260748;22;20414;-83
2021/10/26 05:35:48;;;;;;;62.83;30.45;;;6.50;99.90;;;;;;6304492;22;20082;-84
2021/10/26 05:38:36;;;;;;;60.97;32.25;;;6.50;99.90;;;;;;6303294;22;20031;-87
2021/10/26 05:41:23;;;;;;;68.55;36.28;;;6.70;99.90;;;;;;6281764;22;20027;-84
2021/10/26 05:44:11;;;;;;;67.57;35.22;;;6.70;99.90;;;;;;6301691;22;20069;-83
2021/10/26 05:47:00;;;;;;;69.57;36.25;;;6.80;99.90;;;;;;6282099;22;20031;-83
2021/10/26 05:49:53;;;;;;;80.40;37.55;;;6.80;99.90;;;;;;6304221;22;20099;-83
2021/10/26 05:52:42;;;;;;;68.30;36.45;;;6.90;99.90;;;;;;6258976;22;20023;-83
2021/10/26 05:55:29;;;;;;;75.25;38.40;;;6.90;99.90;;;;;;6261703;22;20042;-83
2021/10/26 05:58:19;;;;;;;76.38;37.10;;;7.00;99.90;;;;;;6237004;22;20027;-83
2021/10/26 06:01:06;;;;;;;75.85;39.80;;;7.00;99.90;;;;;;6260587;22;20476;-83
2021/10/26 06:03:53;;;;;;;79.70;40.28;;;7.10;99.90;;;;;;6305204;22;20038;-82
2021/10/26 06:06:41;;;;;;;65.07;35.47;;;7.00;99.90;;;;;;6260202;22;20019;-82
2021/10/26 06:09:35;;;;;;;84.93;40.13;;;7.00;99.90;;;;;;6283000;22;20023;-85
2021/10/26 06:12:28;;;;;;;69.05;36.10;;;7.00;99.90;;;;;;6261933;22;20031;-86
2021/10/26 06:15:15;;;;;;;82.47;37.72;;;7.00;99.90;;;;;;6285051;22;20027;-84
2021/10/26 06:18:03;;;;;;;64.97;36.55;;;7.00;99.90;;;;;;6304172;22;20053;-85
2021/10/26 06:20:50;;;;;;;71.75;37.83;;;7.00;99.90;;;;;;6306739;22;20050;-84
2021/10/26 06:23:41;;;;;;;79.82;36.75;;;7.10;99.90;;;;;;6305495;22;20027;-84
2021/10/26 06:26:30;;;;;;;73.83;37.63;;;7.10;99.90;;;;;;6305605;22;20450;-85
2021/10/26 06:29:17;;;;;;;76.90;36.47;;;7.20;99.90;;;;;;6284464;22;20556;-85
2021/10/26 06:32:08;;;;;;;80.88;38.67;;;7.30;99.90;;;;;;6285894;22;20509;-85
2021/10/26 06:34:55;;;;;;;74.43;37.92;;;7.40;99.90;;;;;;6305206;22;20126;-85
2021/10/26 06:37:43;;;;;;;71.15;36.95;;;7.50;99.90;;;;;;6284253;22;20458;-85
2021/10/26 06:40:32;;;;;;;82.78;39.53;;;7.60;99.90;;;;;;6304889;22;20302;-86
2021/10/26 06:43:22;;;;;;;73.63;37.55;;;7.70;99.90;;;;;;6262729;22;20181;-86
2021/10/26 06:46:10;;;;;;;70.82;36.80;;;7.70;99.90;;;;;;6263435;22;20015;-86
2021/10/26 06:48:58;;;;;;;75.07;38.10;;;7.80;99.90;;;;;;6305621;22;20107;-84
2021/10/26 06:51:48;;;;;;;70.13;38.58;;;7.80;99.90;;;;;;6307236;22;20023;-83
2021/10/26 06:54:38;;;;;;;70.13;35.28;;;7.90;99.90;;;;;;6284539;22;20115;-83
2021/10/26 06:57:30;;;;;;;57.25;34.55;;;7.80;99.90;;;;;;6304716;22;20421;-83
2021/10/26 07:00:18;;;;;;;46.20;27.17;;;7.70;99.90;;;;;;6265469;22;20387;-84
2021/10/26 07:03:06;;;;;;;61.25;37.35;;;7.60;99.90;;;;;;6285193;22;20309;-84
2021/10/26 07:05:53;;;;;;;65.80;36.53;;;7.60;99.90;;;;;;6281266;22;20027;-85
2021/10/26 07:08:41;;;;;;;58.00;35.53;;;7.70;99.90;;;;;;6306437;22;20038;-84
2021/10/26 07:11:28;;;;;;;61.15;34.90;;;7.80;99.90;;;;;;6303887;22;20084;-84
2021/10/26 07:14:15;;;;;;;51.42;32.15;;;7.90;99.90;;;;;;6306116;22;20148;-83
2021/10/26 07:17:07;;;;;;;56.40;34.45;;;8.00;99.90;;;;;;6263273;22;20027;-84
2021/10/26 07:19:54;;;;;;;48.30;27.70;;;8.00;99.90;;;;;;6284182;22;20034;-87
2021/10/26 07:22:54;;;;;;;42.13;25.15;;;8.00;99.90;;;;;;6284401;22;20030;-85
2021/10/26 07:25:42;;;;;;;48.58;27.13;;;8.10;99.90;;;;;;6304414;22;20408;-85
2021/10/26 07:28:29;;;;;;;40.10;25.55;;;8.20;99.90;;;;;;6282854;22;20027;-86
2021/10/26 07:31:18;;;;;;;40.85;26.05;;;8.20;99.90;;;;;;6263157;22;20023;-85
2021/10/26 07:34:11;;;;;;;39.10;24.75;;;8.30;99.90;;;;;;6306444;22;20023;-84
2021/10/26 07:37:03;;;;;;;38.92;25.25;;;8.40;99.90;;;;;;6283587;22;20037;-84
2021/10/26 07:39:52;;;;;;;40.78;25.15;;;8.50;99.90;;;;;;6306795;22;20027;-86
2021/10/26 07:42:39;;;;;;;39.53;23.92;;;8.60;99.90;;;;;;6263990;22;20035;-87
2021/10/26 07:45:26;;;;;;;41.78;22.17;;;8.60;99.90;;;;;;6307295;22;20399;-85
2021/10/26 07:48:14;;;;;;;36.65;22.75;;;8.60;99.90;;;;;;6282825;22;20422;-86
2021/10/26 07:51:03;;;;;;;26.42;18.00;;;8.70;99.90;;;;;;6285293;22;20027;-87
2021/10/26 07:53:51;;;;;;;28.17;16.65;;;8.70;99.90;;;;;;6283082;22;20343;-87
2021/10/26 07:56:38;;;;;;;25.23;16.15;;;8.60;99.90;;;;;;6310291;22;20422;-86
2021/10/26 07:59:26;;;;;;;23.13;17.00;;;8.50;99.90;;;;;;6282903;22;20016;-85
2021/10/26 08:02:14;;;;;;;22.90;17.80;;;8.60;99.90;;;;;;6305937;22;20402;-87
2021/10/26 08:05:03;;;;;;;30.77;17.77;;;8.60;99.90;;;;;;6284088;22;20122;-87
2021/10/26 08:07:52;;;;;;;20.70;15.75;;;8.80;99.90;;;;;;6285406;22;20053;-84
2021/10/26 08:10:42;;;;;;;30.27;18.33;;;9.10;99.90;;;;;;6311322;22;20107;-85
2021/10/26 08:13:31;;;;;;;25.90;17.25;;;9.30;99.90;;;;;;6309971;22;20135;-85
2021/10/26 08:16:21;;;;;;;25.65;16.40;;;9.60;99.90;;;;;;6297732;22;20314;-86
2021/10/26 08:19:11;;;;;;;25.05;15.30;;;9.90;99.90;;;;;;6283369;22;20100;-84
2021/10/26 08:22:04;;;;;;;25.42;15.30;;;10.30;99.90;;;;;;6282897;22;20102;-84
2021/10/26 08:25:14;;;;;;;18.83;13.80;;;10.50;99.90;;;;;;6283425;22;20098;-85
2021/10/26 08:28:04;;;;;;;16.83;11.30;;;10.80;99.90;;;;;;6306729;22;20019;-86
2021/10/26 08:30:56;;;;;;;18.70;10.32;;;11.10;99.90;;;;;;6242724;22;20096;-83
2021/10/26 08:34:06;;;;;;;14.63;9.68;;;11.40;99.90;;;;;;6305766;22;20030;-83
2021/10/26 08:36:55;;;;;;;18.17;8.35;;;11.80;99.90;;;;;;6283909;22;20475;-87
2021/10/26 08:39:45;;;;;;;8.90;6.60;;;12.40;99.90;;;;;;6306901;22;20027;-86
2021/10/26 08:42:32;;;;;;;13.38;8.10;;;12.80;99.90;;;;;;6305619;22;20108;-87
2021/10/26 08:45:24;;;;;;;14.13;7.43;;;13.10;99.90;;;;;;6307935;22;20034;-86
2021/10/26 08:48:19;;;;;;;15.70;6.85;;;13.10;99.90;;;;;;6312274;22;20116;-89
2021/10/26 08:51:09;;;;;;;11.50;5.78;;;13.10;99.90;;;;;;6272505;22;20410;-84
2021/10/26 08:53:58;;;;;;;10.45;5.60;;;12.80;99.90;;;;;;6304471;22;20302;-85
2021/10/26 08:56:49;;;;;;;9.68;5.90;;;12.60;99.90;;;;;;6282743;22;20318;-83
2021/10/26 08:59:36;;;;;;;14.18;6.35;;;12.50;99.90;;;;;;6262678;22;20092;-86
2021/10/26 09:02:40;;;;;;;16.73;6.70;;;12.50;99.90;;;;;;6304871;22;20472;-84
2021/10/26 09:05:31;;;;;;;9.73;5.75;;;12.60;99.90;;;;;;6284984;22;20120;-89
2021/10/26 09:08:21;;;;;;;9.70;5.40;;;12.90;99.90;;;;;;6316763;22;20087;-88
2021/10/26 09:11:38;;;;;;;9.95;5.95;;;12.90;99.90;;;;;;6277209;22;20034;-86
2021/10/26 09:17:42;;;;;;;15.60;6.35;;;12.90;99.90;;;;;;6320615;22;20031;-87
2021/10/26 09:20:31;;;;;;;9.35;5.80;;;13.10;99.90;;;;;;6327349;22;20080;-86
2021/10/26 09:23:43;;;;;;;;;;;;;;;;;;;;;
2021/10/26 09:26:48;;;;;;;6.60;4.30;;;14.80;99.90;;;;;;6316577;22;20023;-88
2021/10/26 09:29:38;;;;;;;9.65;5.03;;;15.80;99.90;;;;;;6297250;22;20053;-88
2021/10/26 09:32:44;;;;;;;9.30;4.75;;;15.80;99.90;;;;;;6318662;22;20046;-87
2021/10/26 09:35:33;;;;;;;8.98;4.50;;;15.60;99.90;;;;;;6285702;22;20426;-86
2021/10/26 09:38:28;;;;;;;8.77;4.78;;;15.20;99.90;;;;;;6261564;22;20023;-86
2021/10/26 09:41:15;;;;;;;7.10;4.63;;;14.40;99.90;;;;;;6306941;22;20042;-88
2021/10/26 09:44:15;;;;;;;8.00;4.72;;;14.20;99.90;;;;;;6284969;22;20034;-86
2021/10/26 09:47:08;;;;;;;10.25;4.70;;;14.00;99.90;;;;;;6305029;22;20094;-87
2021/10/26 09:50:05;;;;;;;11.50;4.53;;;13.90;99.90;;;;;;6282420;22;20019;-87
2021/10/26 09:53:06;;;;;;;9.32;4.88;;;13.80;99.90;;;;;;6305784;22;20031;-87
2021/10/26 09:55:53;;;;;;;12.23;4.85;;;13.80;99.90;;;;;;6287842;22;20044;-85
2021/10/26 09:58:44;;;;;;;8.40;4.78;;;13.80;99.90;;;;;;6307842;22;20024;-87
2021/10/26 10:01:53;;;;;;;9.07;4.53;;;13.80;99.90;;;;;;6310380;22;20448;-85
2021/10/26 10:04:43;;;;;;;6.97;4.63;;;13.80;99.90;;;;;;6287314;22;20031;-90
2021/10/26 10:07:55;;;;;;;7.90;4.18;;;13.80;99.90;;;;;;6290758;22;20523;-89
2021/10/26 10:11:21;;;;;;;13.57;5.65;;;14.10;99.90;;;;;;6196011;23;20102;-88
2021/10/26 10:14:13;;;;;;;11.73;4.88;;;14.60;99.90;;;;;;6191253;23;20021;-89
2021/10/26 10:17:22;;;;;;;9.82;4.45;;;15.20;99.90;;;;;;6195328;23;20020;-88
2021/10/26 10:20:12;;;;;;;7.40;3.83;;;16.60;99.90;;;;;;6193644;23;20580;-87
2021/10/26 10:23:15;;;;;;;9.95;4.72;;;16.60;99.90;;;;;;6211888;23;20024;-89
2021/10/26 10:26:06;;;;;;;8.40;3.95;;;16.50;99.90;;;;;;6192096;23;20064;-86
2021/10/26 10:28:55;;;;;;;6.95;4.07;;;16.50;99.90;;;;;;6192690;23;20028;-86
2021/10/26 10:31:44;;;;;;;7.38;2.90;;;16.60;99.90;;;;;;6194411;23;20083;-90
2021/10/26 10:34:54;;;;;;;5.30;3.47;;;16.90;99.90;;;;;;6197065;23;20048;-91
2021/10/26 10:37:55;;;;;;;8.52;3.63;;;16.40;99.90;;;;;;6193100;23;20075;-87
2021/10/26 10:40:44;;;;;;;5.97;3.22;;;16.00;99.90;;;;;;6219790;22;20025;-88
2021/10/26 10:43:35;;;;;;;9.85;4.00;;;16.10;99.90;;;;;;6283680;22;20038;-86
2021/10/26 10:46:47;;;;;;;7.20;3.13;;;16.20;99.90;;;;;;6285048;22;20418;-87
2021/10/26 10:49:37;;;;;;;8.88;3.08;;;16.60;99.90;;;;;;6305574;22;20329;-87
2021/10/26 10:52:31;;;;;;;14.57;3.67;;;17.30;99.90;;;;;;6307612;22;20023;-87
2021/10/26 10:55:25;;;;;;;9.65;3.55;;;17.30;99.90;;;;;;6283594;22;20034;-88
2021/10/26 10:58:23;;;;;;;5.22;2.90;;;17.50;99.90;;;;;;6306883;22;20076;-87
2021/10/26 11:01:35;;;;;;;4.28;2.50;;;17.40;98.90;;;;;;6286766;22;20153;-88
2021/10/26 11:04:29;;;;;;;10.27;3.38;;;17.10;99.90;;;;;;6284369;22;20027;-88
2021/10/26 11:07:40;;;;;;;9.00;3.67;;;17.00;99.90;;;;;;6284240;22;20042;-86
2021/10/26 11:10:54;;;;;;;7.43;2.83;;;17.00;99.90;;;;;;6305873;22;20019;-86
2021/10/26 11:13:41;;;;;;;6.65;2.97;;;16.90;99.90;;;;;;6309546;22;20027;-86
2021/10/26 11:16:34;;;;;;;7.30;3.30;;;16.90;99.80;;;;;;6307126;22;20089;-86
2021/10/26 11:19:42;;;;;;;6.47;2.88;;;16.70;99.90;;;;;;6310970;22;20054;-87
2021/10/26 11:22:53;;;;;;;2.63;1.95;;;16.50;99.60;;;;;;6309432;22;20385;-87
2021/10/26 11:25:45;;;;;;;9.63;2.78;;;16.00;99.90;;;;;;6285303;22;20114;-86
2021/10/26 11:28:39;;;;;;;6.88;2.47;;;16.00;99.90;;;;;;6307191;22;20023;-85
2021/10/26 11:31:29;;;;;;;3.70;1.80;;;15.90;99.90;;;;;;6308993;22;20027;-87
2021/10/26 11:34:37;;;;;;;7.45;2.13;;;15.60;99.90;;;;;;6310679;22;20042;-87
2021/10/26 11:37:24;;;;;;;8.18;2.60;;;15.20;99.90;;;;;;6288472;22;20034;-87
2021/10/26 11:40:15;;;;;;;4.63;1.88;;;15.00;99.90;;;;;;6284510;22;20034;-87
2021/10/26 11:43:28;;;;;;;3.92;1.83;;;14.80;99.90;;;;;;6289830;22;20038;-90
2021/10/26 11:46:19;;;;;;;5.03;2.03;;;14.80;99.90;;;;;;6307920;22;20026;-86
2021/10/26 11:49:18;;;;;;;3.45;1.77;;;14.70;99.90;;;;;;6309739;22;20019;-86
2021/10/26 11:52:15;;;;;;;5.72;1.80;;;14.40;99.90;;;;;;6283214;22;20037;-87
2021/10/26 11:55:49;;;;;;;3.00;1.30;;;14.30;99.90;;;;;;6266690;22;20019;-88
2021/10/26 11:58:38;;;;;;;4.75;1.48;;;14.20;99.90;;;;;;6140346;23;20441;-88
2021/10/26 12:01:47;;;;;;;4.68;1.58;;;14.30;99.90;;;;;;6151250;23;20032;-88
2021/10/26 12:05:15;;;;;;;5.45;1.55;;;14.20;99.90;;;;;;6137288;23;20145;-85
2021/10/26 12:08:47;;;;;;;3.08;1.40;;;14.10;99.90;;;;;;6093785;23;20025;-88
2021/10/26 12:11:34;;;;;;;4.35;1.50;;;14.30;99.90;;;;;;6131800;23;20025;-86
2021/10/26 12:14:46;;;;;;;8.32;1.77;;;14.50;99.90;;;;;;6077650;23;20030;-87
2021/10/26 12:18:03;;;;;;;3.38;1.67;;;14.70;99.90;;;;;;6212244;23;20107;-87
2021/10/26 12:21:04;;;;;;;5.28;1.58;;;14.80;99.90;;;;;;6192382;23;20021;-87
2021/10/26 12:24:08;;;;;;;2.78;1.60;;;14.80;99.90;;;;;;6208755;23;20035;-86
2021/10/26 12:27:08;;;;;;;5.90;1.50;;;14.90;99.90;;;;;;6211272;23;20104;-87
2021/10/26 12:30:25;;;;;;;5.75;1.73;;;15.00;99.90;;;;;;6213738;23;20027;-89
2021/10/26 12:33:32;;;;;;;7.10;1.63;;;15.40;99.90;;;;;;6169781;23;20061;-88
2021/10/26 12:36:27;;;;;;;3.55;1.20;;;16.00;99.90;;;;;;6188919;23;20025;-88
2021/10/26 12:39:28;;;;;;;3.80;1.30;;;16.40;99.90;;;;;;6162043;23;20029;-89
2021/10/26 12:42:44;;;;;;;5.00;1.50;;;16.70;99.10;;;;;;6147783;23;20028;-89
2021/10/26 12:46:20;;;;;;;4.28;1.23;;;17.40;95.70;;;;;;6182874;23;20340;-90
2021/10/26 12:49:37;;;;;;;2.78;1.10;;;18.30;92.70;;;;;;6180045;23;20393;-87
2021/10/26 12:53:34;;;;;;;2.72;1.23;;;19.20;86.40;;;;;;6143942;23;20036;-87
2021/10/26 12:56:39;;;;;;;;;;;;;;;;;;;;;
2021/10/26 12:59:28;;;;;;;3.80;1.60;;;18.20;87.50;;;;;;6149854;23;20116;-86
2021/10/26 13:02:37;;;;;;;;;;;;;;;;;;;;;
2021/10/26 13:05:24;;;;;;;3.65;1.55;;;16.70;92.30;;;;;;6179105;23;20028;-86
2021/10/26 13:08:22;;;;;;;5.35;1.52;;;16.30;93.90;;;;;;6189726;23;20484;-89
2021/10/26 13:11:51;;;;;;;7.07;1.25;;;16.20;94.80;;;;;;6179891;23;20021;-88
2021/10/26 13:15:20;;;;;;;5.75;1.40;;;15.90;96.10;;;;;;6181535;23;20103;-88
2021/10/26 13:18:11;;;;;;;3.65;1.27;;;15.40;97.20;;;;;;6183691;23;20440;-85
2021/10/26 13:21:01;;;;;;;5.63;1.50;;;15.00;98.80;;;;;;6180790;23;20040;-86
2021/10/26 13:23:50;;;;;;;6.38;2.05;;;14.80;99.40;;;;;;6250652;22;20024;-87
2021/10/26 13:26:40;;;;;;;3.60;1.30;;;14.90;99.90;;;;;;6273062;22;20028;-86
2021/10/26 13:29:49;;;;;;;6.70;1.55;;;15.00;99.90;;;;;;6270387;22;20107;-85
2021/10/26 13:32:39;;;;;;;3.67;1.27;;;15.10;99.30;;;;;;6249793;22;20150;-84
2021/10/26 13:35:26;;;;;;;4.15;1.70;;;15.30;99.30;;;;;;6269874;22;20051;-85
2021/10/26 13:38:15;;;;;;;3.75;1.50;;;15.50;98.50;;;;;;6274518;22;20081;-82
2021/10/26 13:41:06;;;;;;;3.78;1.33;;;15.80;98.90;;;;;;6271303;22;20031;-85
2021/10/26 13:43:55;;;;;;;4.93;1.67;;;16.00;98.20;;;;;;6275282;22;20079;-85
2021/10/26 13:46:43;;;;;;;3.03;1.52;;;15.90;97.60;;;;;;6271680;22;20078;-84
2021/10/26 13:49:30;;;;;;;3.63;1.77;;;15.80;97.70;;;;;;6273257;22;20055;-85
2021/10/26 13:52:18;;;;;;;6.72;1.60;;;15.60;98.60;;;;;;6272927;22;20677;-84
2021/10/26 13:55:10;;;;;;;3.15;1.52;;;15.60;98.50;;;;;;6272559;22;20027;-85
2021/10/26 13:57:58;;;;;;;5.47;1.92;;;15.80;99.20;;;;;;6272357;22;20031;-83
2021/10/26 14:00:49;;;;;;;4.53;1.40;;;17.00;97.40;;;;;;6272611;22;20079;-82
2021/10/26 14:03:40;;;;;;;4.50;1.42;;;19.00;90.40;;;;;;6272636;22;20421;-87
2021/10/26 14:06:32;;;;;;;2.95;1.50;;;19.00;82.10;;;;;;6273072;22;20667;-84
2021/10/26 14:09:19;;;;;;;3.63;1.60;;;18.40;84.70;;;;;;6278297;22;20032;-85
2021/10/26 14:12:07;;;;;;;7.80;3.15;;;17.60;88.40;;;;;;6271173;22;20120;-85
2021/10/26 14:14:56;;;;;;;10.25;5.03;;;17.60;90.00;;;;;;6251097;22;20050;-87
2021/10/26 14:17:43;;;;;;;14.93;6.55;;;19.00;83.80;;;;;;6273704;22;20106;-88
2021/10/26 14:20:44;;;;;;;4.22;1.60;;;21.00;74.50;;;;;;6277778;22;20054;-89
2021/10/26 14:23:36;;;;;;;2.10;1.30;;;22.40;66.00;;;;;;6279582;22;20036;-87
2021/10/26 14:26:25;;;;;;;2.17;1.00;;;23.50;58.70;;;;;;6287140;22;20095;-88
2021/10/26 14:29:14;;;;;;;3.53;1.38;;;23.40;56.20;;;;;;6307525;22;20102;-88
2021/10/26 14:32:05;;;;;;;3.45;1.50;;;23.10;56.30;;;;;;6285048;22;20041;-86
2021/10/26 14:34:56;;;;;;;1.77;0.90;;;22.60;56.20;;;;;;6285024;22;20078;-86
2021/10/26 14:37:59;;;;;;;2.42;1.10;;;22.10;56.70;;;;;;6307580;22;20023;-83
2021/10/26 14:41:09;;;;;;;3.28;1.10;;;21.30;58.60;;;;;;6285999;22;20031;-87
2021/10/26 14:53:39;;;;;;;4.05;1.25;;;20.80;61.00;;;;;;6289724;22;20088;-86
2021/10/26 14:56:26;;;;;;;2.83;1.40;;;19.80;63.90;;;;;;6293835;22;20084;-85
2021/10/26 14:59:16;;;;;;;3.75;1.40;;;20.00;65.50;;;;;;6288321;22;20047;-85
2021/10/26 15:02:05;;;;;;;1.60;1.20;;;20.30;62.30;;;;;;6309855;22;20100;-83
2021/10/26 15:04:53;;;;;;;3.67;1.35;;;19.60;63.80;;;;;;6287114;22;20027;-84
2021/10/26 15:07:47;;;;;;;4.25;1.30;;;18.40;67.90;;;;;;6286944;22;20019;-84
2021/10/26 15:13:42;;;;;;;3.90;1.67;;;17.50;73.00;;;;;;6308156;22;20023;-88
2021/10/26 15:16:45;;;;;;;5.45;1.75;;;16.80;76.50;;;;;;6289147;22;20034;-86
2021/10/26 15:19:41;;;;;;;5.45;1.63;;;15.90;80.70;;;;;;6285641;22;20019;-87
2021/10/26 15:22:34;;;;;;;3.05;1.75;;;15.50;84.70;;;;;;6316989;22;20023;-87
2021/10/26 15:35:36;;;;;;;3.28;1.80;;;14.20;97.50;;;;;;6304729;22;20011;-88
2021/10/26 15:38:31;;;;;;;4.35;2.15;;;14.00;99.90;;;;;;6328479;22;20023;-87
2021/10/26 15:41:20;;;;;;;6.07;3.15;;;13.80;99.90;;;;;;6301249;22;20037;-87
2021/10/26 15:44:11;;;;;;;11.35;4.40;;;13.60;99.90;;;;;;6300936;22;20046;-84
2021/10/26 15:47:00;;;;;;;8.85;4.43;;;13.40;99.90;;;;;;6327847;22;20107;-85
2021/10/26 15:49:47;;;;;;;8.38;2.83;;;13.20;99.90;;;;;;6313975;22;20027;-86